Okaya, Japan
Current Conditions -  °F | °C
As of 7:00 PM on Saturday 25 Oct 2014 (Local Time) from RJNT Reporting Station
Clear Clear  
Wind Chill: 59°   Ceiling: Unl
Heat Index: 59°   Visibility: 6mi
Dew Point: 52°   Wind: 2mph
Humidity: 77%   Direction: NA
Pressure: 30.18"   Gusts: NA
Location:  36.06°N, 138.06°E
Report Text: RJNT 251000Z VRB02KT CAVOK 15/11 Q1022
Loading
Personal Weather Stations






























Interactive Weather Map
Tropical Storm Tracking
New forecast layout! Learn more

10-Day Weather Forecast

Advertisements
Track Severe Weather on mobile